Time;durP1;ratioP1;P1;durP2;ratioP2;P2;SDS_P1;SDS_P2;PMS_P1;PMS_P2;Temp;Humidity;BMP_temperature;BMP_pressure;BME280_temperature;BME280_humidity;BME280_pressure;Samples;Min_cycle;Max_cycle;Signal;HPM_P1;HPM_P2
2023/05/31 00:02:01;;;;;;;12.73;6.80;;;17.70;48.60;;;;;;5002495;28;114638;-79
2023/05/31 00:04:28;;;;;;;11.65;6.30;;;17.70;48.20;;;;;;5002537;28;114154;-79
2023/05/31 00:06:55;;;;;;;9.90;6.07;;;17.70;48.80;;;;;;4983803;28;115543;-79
2023/05/31 00:09:23;;;;;;;9.70;5.80;;;17.70;49.00;;;;;;5001411;28;114771;-79
2023/05/31 00:11:50;;;;;;;10.82;5.93;;;17.70;48.80;;;;;;4996875;28;114377;-79
2023/05/31 00:14:17;;;;;;;10.70;6.65;;;17.70;48.90;;;;;;4982183;28;115499;-79
2023/05/31 00:16:44;;;;;;;11.45;6.55;;;17.70;48.60;;;;;;4988408;28;115496;-79
2023/05/31 00:19:32;;;;;;;8.32;5.47;;;17.70;48.40;;;;;;5000826;28;115106;-79
2023/05/31 00:21:59;;;;;;;11.25;6.53;;;17.70;49.00;;;;;;5002246;28;114348;-79
2023/05/31 00:24:27;;;;;;;9.05;6.10;;;17.70;48.40;;;;;;4987442;28;114148;-80
2023/05/31 00:26:54;;;;;;;10.70;6.35;;;17.70;48.90;;;;;;4987031;28;115113;-79
2023/05/31 00:29:22;;;;;;;8.27;5.60;;;17.70;48.60;;;;;;4957762;28;115478;-79
2023/05/31 00:31:49;;;;;;;8.73;6.18;;;17.70;49.10;;;;;;4975973;28;114399;-79
2023/05/31 00:34:17;;;;;;;10.55;5.95;;;17.70;49.10;;;;;;5006591;28;114490;-79
2023/05/31 00:36:44;;;;;;;9.00;6.03;;;17.70;48.90;;;;;;4982720;28;115664;-79
2023/05/31 00:39:12;;;;;;;9.07;6.40;;;17.70;49.30;;;;;;4984627;28;116799;-79
2023/05/31 00:41:40;;;;;;;8.73;5.80;;;17.60;49.20;;;;;;4980788;28;114342;-79
2023/05/31 00:44:08;;;;;;;13.50;6.97;;;17.60;49.00;;;;;;4985193;28;114121;-79
2023/05/31 00:46:37;;;;;;;12.30;7.43;;;17.70;48.20;;;;;;5000093;28;114915;-79
2023/05/31 00:49:04;;;;;;;9.80;6.03;;;17.60;48.30;;;;;;4983422;28;117405;-80
2023/05/31 00:51:32;;;;;;;8.38;5.50;;;17.50;48.90;;;;;;4983137;28;114511;-79
2023/05/31 00:53:59;;;;;;;9.27;6.65;;;17.50;49.30;;;;;;5001063;28;114556;-78
2023/05/31 00:56:27;;;;;;;11.82;7.53;;;17.50;49.00;;;;;;4984301;28;115723;-78
2023/05/31 00:58:56;;;;;;;10.13;6.15;;;17.50;48.70;;;;;;4983656;28;116696;-78
2023/05/31 01:01:27;;;;;;;9.50;6.05;;;17.50;49.50;;;;;;4984647;28;114427;-79
2023/05/31 01:03:56;;;;;;;9.70;6.20;;;17.40;49.40;;;;;;4983478;28;114409;-79
2023/05/31 01:06:24;;;;;;;10.20;5.93;;;17.40;49.20;;;;;;4984359;28;114910;-80
2023/05/31 01:08:51;;;;;;;9.75;6.50;;;17.30;49.60;;;;;;4986495;28;115325;-79
2023/05/31 01:11:26;;;;;;;10.10;6.00;;;17.40;49.50;;;;;;5003641;28;114227;-79
2023/05/31 01:14:20;;;;;;;9.65;6.25;;;17.40;49.40;;;;;;5003096;28;114670;-79
2023/05/31 01:16:53;;;;;;;11.27;5.95;;;17.50;49.10;;;;;;4986795;28;116275;-79
2023/05/31 01:19:36;;;;;;;9.63;6.28;;;17.30;49.40;;;;;;5003786;28;118543;-79
2023/05/31 01:22:14;;;;;;;12.45;6.50;;;17.40;49.60;;;;;;5002974;28;114492;-79
2023/05/31 01:24:52;;;;;;;9.13;5.93;;;17.40;49.50;;;;;;4987456;28;114249;-79
2023/05/31 01:27:20;;;;;;;8.93;6.28;;;17.40;49.70;;;;;;5003445;28;114844;-79
2023/05/31 01:29:48;;;;;;;8.93;5.82;;;17.30;49.50;;;;;;5002630;28;116999;-79
2023/05/31 01:32:15;;;;;;;10.93;6.75;;;17.40;49.60;;;;;;4985919;28;114747;-79
2023/05/31 01:34:49;;;;;;;8.70;5.93;;;17.40;48.70;;;;;;4970162;28;114229;-79
2023/05/31 01:37:16;;;;;;;9.80;6.00;;;17.40;49.50;;;;;;4994373;28;115138;-79
2023/05/31 01:39:43;;;;;;;10.18;6.20;;;17.30;49.40;;;;;;4976575;28;115744;-79
2023/05/31 01:42:11;;;;;;;9.43;5.80;;;17.30;49.20;;;;;;4964452;28;114143;-79
2023/05/31 01:44:38;;;;;;;9.07;5.95;;;17.30;49.40;;;;;;4998096;28;116698;-79
2023/05/31 01:47:07;;;;;;;9.32;5.43;;;17.30;49.30;;;;;;4942040;28;119316;-79
2023/05/31 01:49:36;;;;;;;9.05;6.57;;;17.40;49.80;;;;;;4961994;28;115792;-79
2023/05/31 01:52:10;;;;;;;9.52;6.30;;;17.40;49.40;;;;;;4981490;28;114175;-78
2023/05/31 01:54:37;;;;;;;8.20;5.90;;;17.40;49.10;;;;;;4963072;28;114593;-78
2023/05/31 01:57:05;;;;;;;10.43;5.88;;;17.40;49.20;;;;;;4977973;28;114684;-78
2023/05/31 01:59:34;;;;;;;10.07;7.40;;;17.40;49.40;;;;;;4998602;28;114614;-78
2023/05/31 02:02:03;;;;;;;10.85;5.88;;;17.40;48.80;;;;;;4963276;28;116670;-78
2023/05/31 02:04:31;;;;;;;9.18;6.25;;;17.40;49.40;;;;;;4980193;28;114200;-78
2023/05/31 02:07:00;;;;;;;10.43;6.05;;;17.40;49.10;;;;;;4964775;28;114917;-78
2023/05/31 02:09:27;;;;;;;10.57;6.50;;;17.30;49.20;;;;;;4998946;28;115293;-78
2023/05/31 02:11:54;;;;;;;9.48;6.13;;;17.30;48.80;;;;;;4999187;28;114391;-78
2023/05/31 02:14:21;;;;;;;9.07;6.45;;;17.30;49.30;;;;;;4963744;28;114509;-78
2023/05/31 02:16:48;;;;;;;10.45;6.45;;;17.20;49.40;;;;;;4986552;28;115163;-78
2023/05/31 02:19:15;;;;;;;10.90;6.13;;;17.20;48.50;;;;;;5001584;28;114529;-78
2023/05/31 02:21:43;;;;;;;8.95;5.47;;;17.20;49.40;;;;;;4969556;28;114325;-78
2023/05/31 02:24:10;;;;;;;10.50;6.57;;;17.20;49.30;;;;;;5001786;28;114256;-78
2023/05/31 02:26:37;;;;;;;10.95;6.90;;;17.20;49.40;;;;;;5001760;28;115566;-78
2023/05/31 02:29:04;;;;;;;10.13;6.03;;;17.20;48.70;;;;;;5015482;28;114675;-77
2023/05/31 02:31:32;;;;;;;11.70;6.22;;;17.20;49.40;;;;;;5006724;28;114453;-78
2023/05/31 02:33:59;;;;;;;8.73;6.30;;;17.20;49.50;;;;;;5003832;28;114461;-78
2023/05/31 02:36:28;;;;;;;8.52;6.10;;;17.20;49.60;;;;;;4981662;28;116642;-78
2023/05/31 02:38:55;;;;;;;10.05;5.57;;;17.20;49.60;;;;;;4983009;28;114613;-78
2023/05/31 02:41:22;;;;;;;9.50;6.05;;;17.20;49.80;;;;;;4982940;28;114274;-78
2023/05/31 02:43:50;;;;;;;7.75;5.80;;;17.20;49.70;;;;;;4983500;28;115199;-78
2023/05/31 02:46:22;;;;;;;9.05;5.82;;;17.20;49.40;;;;;;4985402;28;115344;-78
2023/05/31 02:48:49;;;;;;;10.63;6.50;;;17.20;49.30;;;;;;4984509;28;115673;-78
2023/05/31 02:51:17;;;;;;;10.60;6.70;;;17.20;49.30;;;;;;4981082;28;114776;-78
2023/05/31 02:54:12;;;;;;;10.80;6.00;;;17.20;49.40;;;;;;4978809;28;114416;-79
2023/05/31 02:56:40;;;;;;;11.18;6.70;;;17.20;49.40;;;;;;4989200;28;115448;-79
2023/05/31 02:59:13;;;;;;;9.88;6.50;;;17.20;49.00;;;;;;5002228;28;115124;-78
2023/05/31 03:01:43;;;;;;;10.73;6.50;;;17.20;48.90;;;;;;4953262;28;114469;-78
2023/05/31 03:04:44;;;;;;;9.30;6.38;;;17.20;48.90;;;;;;5001565;28;114391;-78
2023/05/31 03:07:13;;;;;;;10.88;6.53;;;17.10;49.00;;;;;;5000269;28;115072;-78
2023/05/31 03:09:40;;;;;;;8.32;5.60;;;17.10;49.30;;;;;;4983626;28;115848;-78
2023/05/31 03:12:08;;;;;;;11.85;6.82;;;17.20;49.30;;;;;;5001575;28;114369;-78
2023/05/31 03:14:36;;;;;;;9.75;6.18;;;17.20;49.10;;;;;;4985325;28;114240;-78
2023/05/31 03:17:04;;;;;;;10.90;6.35;;;17.20;49.20;;;;;;5000244;28;115614;-77
2023/05/31 03:19:32;;;;;;;9.40;6.43;;;17.30;48.80;;;;;;4985189;28;114564;-79
2023/05/31 03:22:04;;;;;;;13.07;7.53;;;17.50;48.80;;;;;;4994933;28;114580;-78
2023/05/31 03:24:31;;;;;;;10.13;6.05;;;17.80;47.30;;;;;;4981368;28;115423;-78
2023/05/31 03:27:00;;;;;;;9.20;5.63;;;18.10;47.90;;;;;;4997263;28;115425;-78
2023/05/31 03:29:28;;;;;;;11.05;6.40;;;18.50;47.40;;;;;;4980879;28;115082;-78
2023/05/31 03:31:59;;;;;;;10.55;6.05;;;18.70;46.20;;;;;;4997558;28;114227;-78
2023/05/31 03:34:27;;;;;;;9.38;5.78;;;19.00;46.00;;;;;;5001378;28;114380;-79
2023/05/31 03:36:55;;;;;;;12.75;6.22;;;19.30;45.60;;;;;;4967325;28;118881;-79
2023/05/31 03:39:31;;;;;;;8.05;5.30;;;19.60;44.50;;;;;;4979069;28;114774;-79
2023/05/31 03:42:01;;;;;;;9.98;6.05;;;19.80;44.50;;;;;;4973977;28;114263;-79
2023/05/31 03:44:29;;;;;;;9.30;5.90;;;20.10;43.90;;;;;;4998111;28;114254;-79
2023/05/31 03:46:57;;;;;;;8.55;5.88;;;20.20;43.50;;;;;;4980665;28;115971;-78
2023/05/31 03:49:25;;;;;;;9.13;5.55;;;20.40;43.10;;;;;;4980312;28;114599;-79
2023/05/31 03:51:55;;;;;;;14.48;6.68;;;20.50;42.80;;;;;;4981472;28;114346;-79
2023/05/31 03:54:22;;;;;;;16.00;7.38;;;20.60;42.10;;;;;;4997094;28;116346;-78
2023/05/31 03:56:50;;;;;;;16.52;6.70;;;20.60;41.00;;;;;;5000941;28;116642;-78
2023/05/31 03:59:17;;;;;;;12.73;6.85;;;20.60;41.00;;;;;;5003916;28;114617;-78
2023/05/31 04:01:44;;;;;;;12.35;6.65;;;20.40;41.00;;;;;;4987778;28;114327;-79
2023/05/31 04:04:12;;;;;;;10.27;5.72;;;20.30;41.10;;;;;;5004000;28;114214;-78
2023/05/31 04:06:39;;;;;;;13.27;6.53;;;20.30;41.50;;;;;;5002734;28;116074;-78
2023/05/31 04:09:06;;;;;;;11.15;6.55;;;20.20;41.30;;;;;;5003702;28;114740;-78
2023/05/31 04:11:34;;;;;;;11.23;6.25;;;20.20;41.90;;;;;;4987468;28;114414;-78
2023/05/31 04:14:02;;;;;;;14.93;6.68;;;20.10;41.70;;;;;;5004311;28;114364;-79
2023/05/31 04:16:29;;;;;;;13.18;6.57;;;20.00;41.90;;;;;;5020260;28;114843;-78
2023/05/31 04:18:56;;;;;;;12.98;6.80;;;20.00;41.30;;;;;;5003494;28;114703;-79
2023/05/31 04:21:26;;;;;;;18.17;7.20;;;20.00;40.80;;;;;;5003448;28;116204;-78
2023/05/31 04:23:54;;;;;;;12.90;6.53;;;19.90;40.90;;;;;;5004655;28;115468;-79
2023/05/31 04:26:22;;;;;;;16.45;7.03;;;19.80;42.30;;;;;;4988255;28;114704;-78
2023/05/31 04:28:53;;;;;;;14.30;6.78;;;19.80;41.80;;;;;;4983728;28;115081;-78
2023/05/31 04:31:24;;;;;;;16.10;6.40;;;19.80;42.60;;;;;;4983942;28;114603;-78
2023/05/31 04:34:10;;;;;;;15.40;6.57;;;19.70;41.70;;;;;;5000789;28;114350;-78
2023/05/31 04:36:39;;;;;;;16.05;7.20;;;19.70;41.90;;;;;;4983379;28;115425;-79
2023/05/31 04:39:12;;;;;;;17.10;6.75;;;19.70;41.60;;;;;;4983981;28;115222;-78
2023/05/31 04:41:39;;;;;;;15.88;8.18;;;19.50;41.60;;;;;;4967994;28;114225;-78
2023/05/31 04:44:07;;;;;;;18.17;7.80;;;19.30;41.90;;;;;;4984195;28;114339;-78
2023/05/31 04:46:34;;;;;;;19.05;8.52;;;19.30;42.00;;;;;;5001646;28;117670;-78
2023/05/31 04:49:03;;;;;;;17.20;7.55;;;19.20;42.20;;;;;;5003324;28;115581;-79
2023/05/31 04:51:30;;;;;;;15.52;8.35;;;19.10;43.10;;;;;;4987097;28;114674;-78
2023/05/31 04:53:58;;;;;;;19.35;7.65;;;19.20;42.50;;;;;;5020423;28;118577;-78
2023/05/31 04:56:26;;;;;;;18.40;8.00;;;19.10;42.30;;;;;;4999052;28;114865;-78
2023/05/31 04:58:55;;;;;;;16.52;7.60;;;19.10;42.30;;;;;;4983150;28;114616;-78
2023/05/31 05:01:24;;;;;;;16.40;8.32;;;19.10;42.70;;;;;;4983223;28;114449;-78
2023/05/31 05:04:01;;;;;;;16.20;8.05;;;19.10;42.50;;;;;;4989082;28;117165;-78
2023/05/31 05:06:29;;;;;;;16.92;8.25;;;19.10;42.70;;;;;;5002006;28;118170;-78
2023/05/31 05:08:58;;;;;;;17.95;8.98;;;19.10;42.70;;;;;;4980800;28;115208;-80
2023/05/31 05:11:30;;;;;;;15.63;9.27;;;19.10;42.50;;;;;;4999429;28;115367;-80
2023/05/31 05:13:58;;;;;;;18.70;9.52;;;19.20;42.30;;;;;;4990572;28;114449;-78
2023/05/31 05:16:27;;;;;;;14.70;8.60;;;19.30;42.30;;;;;;4982415;28;114971;-78
2023/05/31 05:18:54;;;;;;;22.65;9.10;;;19.30;42.40;;;;;;4993562;28;114672;-78
2023/05/31 05:21:23;;;;;;;21.92;9.85;;;19.40;42.50;;;;;;4983025;28;114458;-78
2023/05/31 05:23:50;;;;;;;22.33;9.30;;;19.50;42.20;;;;;;4981685;28;114317;-78
2023/05/31 05:26:18;;;;;;;26.00;8.43;;;19.80;42.00;;;;;;4981765;28;115474;-78
2023/05/31 05:28:45;;;;;;;19.85;10.15;;;19.80;42.10;;;;;;4982669;28;114773;-78
2023/05/31 05:31:12;;;;;;;19.50;9.60;;;19.90;41.30;;;;;;4999357;28;114216;-78
2023/05/31 05:33:43;;;;;;;28.35;9.65;;;19.90;41.20;;;;;;4982818;28;114363;-78
2023/05/31 05:36:12;;;;;;;26.15;10.05;;;20.10;41.50;;;;;;4997829;28;115481;-78
2023/05/31 05:38:45;;;;;;;18.77;8.97;;;20.20;41.00;;;;;;5001972;28;114578;-78
2023/05/31 05:41:12;;;;;;;16.25;7.68;;;20.30;40.90;;;;;;5002342;28;114223;-78
2023/05/31 05:43:41;;;;;;;18.67;9.30;;;20.50;41.60;;;;;;4972895;28;114638;-80
2023/05/31 05:46:12;;;;;;;18.33;9.77;;;20.60;40.40;;;;;;4965012;28;116641;-80
2023/05/31 05:48:39;;;;;;;15.60;8.85;;;20.70;40.30;;;;;;4998408;28;114623;-79
2023/05/31 05:51:08;;;;;;;16.40;7.75;;;20.90;39.70;;;;;;4998385;28;114237;-77
2023/05/31 05:53:35;;;;;;;18.13;9.68;;;21.00;39.10;;;;;;4982852;28;115665;-78
2023/05/31 05:56:03;;;;;;;18.45;9.57;;;21.00;39.10;;;;;;4949236;28;114869;-77
2023/05/31 05:58:46;;;;;;;18.67;10.13;;;21.10;39.60;;;;;;4981192;28;116469;-78
2023/05/31 06:01:32;;;;;;;19.70;10.73;;;21.20;39.60;;;;;;4982099;28;114420;-77
2023/05/31 06:04:03;;;;;;;20.50;11.65;;;21.20;39.60;;;;;;4984927;28;114407;-78
2023/05/31 06:06:31;;;;;;;24.25;13.00;;;21.30;39.70;;;;;;5001743;28;114904;-77
2023/05/31 06:09:00;;;;;;;22.60;11.15;;;21.30;39.50;;;;;;4987899;28;114708;-77
2023/05/31 06:11:27;;;;;;;23.90;10.10;;;21.50;39.50;;;;;;4979678;28;114529;-77
2023/05/31 06:13:57;;;;;;;22.80;10.20;;;21.50;39.10;;;;;;4999119;28;114502;-79
2023/05/31 06:16:33;;;;;;;25.08;9.73;;;21.50;39.40;;;;;;4999598;28;114808;-78
2023/05/31 06:19:00;;;;;;;23.65;9.75;;;21.60;39.30;;;;;;4989122;28;114963;-79
2023/05/31 06:21:29;;;;;;;16.83;8.50;;;21.70;39.40;;;;;;4994836;28;114218;-79
2023/05/31 06:23:56;;;;;;;21.35;9.68;;;21.80;39.60;;;;;;4983532;28;114159;-79
2023/05/31 06:26:24;;;;;;;16.27;7.80;;;21.80;39.30;;;;;;4986205;28;114994;-78
2023/05/31 06:28:52;;;;;;;21.00;8.43;;;21.90;38.80;;;;;;4988495;28;114630;-79
2023/05/31 06:31:48;;;;;;;26.90;8.70;;;22.00;38.90;;;;;;4974055;28;116125;-79
2023/05/31 06:34:15;;;;;;;17.48;7.53;;;22.00;39.00;;;;;;4985686;28;114279;-79
2023/05/31 06:36:43;;;;;;;15.38;7.10;;;22.10;38.50;;;;;;4968519;28;114942;-79
2023/05/31 06:39:10;;;;;;;16.48;7.10;;;22.20;38.70;;;;;;4968565;28;114651;-79
2023/05/31 06:41:38;;;;;;;12.57;6.50;;;22.30;38.00;;;;;;4985063;28;114511;-80
2023/05/31 06:44:25;;;;;;;14.82;8.05;;;22.30;37.80;;;;;;5003126;28;114504;-79
2023/05/31 06:47:07;;;;;;;13.80;7.03;;;22.30;37.40;;;;;;5014398;28;114899;-79
2023/05/31 06:50:02;;;;;;;16.40;7.03;;;22.40;37.60;;;;;;4980319;28;114712;-80
2023/05/31 06:52:59;;;;;;;14.75;6.63;;;22.50;37.60;;;;;;4966825;28;114288;-77
2023/05/31 06:55:48;;;;;;;12.05;6.90;;;22.60;37.50;;;;;;4999061;28;114292;-79
2023/05/31 06:58:19;;;;;;;10.30;5.82;;;22.70;37.00;;;;;;4969044;28;118486;-78
2023/05/31 07:00:48;;;;;;;9.75;4.85;;;22.70;36.00;;;;;;4997719;28;114792;-80
2023/05/31 07:03:15;;;;;;;10.38;5.40;;;22.70;35.20;;;;;;4965263;28;114446;-79
2023/05/31 07:05:43;;;;;;;10.13;5.53;;;22.70;35.60;;;;;;4964269;28;114611;-80
2023/05/31 07:08:14;;;;;;;10.85;5.30;;;22.80;35.40;;;;;;4960866;28;114832;-81
2023/05/31 07:11:00;;;;;;;8.85;5.18;;;22.80;35.30;;;;;;4981982;28;114637;-78
2023/05/31 07:13:28;;;;;;;10.80;6.15;;;22.80;35.40;;;;;;4981748;28;114407;-79
2023/05/31 07:15:55;;;;;;;12.30;5.70;;;22.80;35.00;;;;;;4947608;28;114410;-79
2023/05/31 07:18:25;;;;;;;8.77;5.63;;;22.60;35.70;;;;;;4985703;28;116059;-79
2023/05/31 07:20:57;;;;;;;10.07;5.40;;;22.70;35.90;;;;;;4985056;28;114642;-78
2023/05/31 07:23:25;;;;;;;13.32;5.70;;;22.70;36.00;;;;;;5002699;28;114421;-79
2023/05/31 07:25:52;;;;;;;11.32;5.88;;;22.70;36.20;;;;;;5003070;28;114377;-79
2023/05/31 07:28:20;;;;;;;10.35;5.47;;;22.70;36.30;;;;;;5000824;28;115086;-79
2023/05/31 07:30:47;;;;;;;10.20;5.15;;;22.80;35.30;;;;;;4983947;28;114939;-79
2023/05/31 07:33:14;;;;;;;10.63;4.90;;;22.60;35.40;;;;;;5001910;28;115711;-79
2023/05/31 07:35:50;;;;;;;12.80;5.03;;;22.50;35.70;;;;;;5003246;28;114340;-79
2023/05/31 07:38:25;;;;;;;7.72;4.72;;;22.50;34.70;;;;;;5003444;28;114851;-79
2023/05/31 07:40:52;;;;;;;8.15;3.90;;;22.40;35.10;;;;;;5001917;28;114680;-79
2023/05/31 07:43:22;;;;;;;9.65;4.50;;;22.30;34.10;;;;;;4984459;28;114609;-79
2023/05/31 07:45:50;;;;;;;7.97;4.43;;;22.10;33.90;;;;;;5002590;28;116412;-79
2023/05/31 07:48:17;;;;;;;7.85;3.65;;;21.80;34.70;;;;;;4993149;28;114985;-79
2023/05/31 07:50:45;;;;;;;7.22;4.03;;;21.70;34.30;;;;;;4961925;28;114975;-79
2023/05/31 07:53:15;;;;;;;13.32;4.18;;;21.60;35.10;;;;;;4981397;28;114410;-79
2023/05/31 07:55:43;;;;;;;9.48;4.05;;;21.70;34.50;;;;;;4980844;28;114462;-79
2023/05/31 07:58:11;;;;;;;9.27;3.63;;;21.90;34.00;;;;;;4980511;28;116107;-79
2023/05/31 08:00:40;;;;;;;10.18;4.20;;;22.00;33.50;;;;;;4999287;28;116886;-78
2023/05/31 08:03:07;;;;;;;9.00;3.88;;;21.90;34.30;;;;;;5000821;28;114461;-79
2023/05/31 08:05:37;;;;;;;9.80;4.43;;;21.90;34.50;;;;;;5000622;28;114278;-79
2023/05/31 08:08:05;;;;;;;7.03;3.50;;;21.80;34.00;;;;;;4979112;28;114901;-79
2023/05/31 08:10:33;;;;;;;7.95;3.25;;;21.80;33.30;;;;;;4980164;28;117987;-79
2023/05/31 08:13:00;;;;;;;7.75;3.90;;;21.80;33.30;;;;;;4982300;28;114371;-79
2023/05/31 08:15:27;;;;;;;8.50;4.20;;;21.80;34.30;;;;;;4981807;28;114318;-80
2023/05/31 08:18:12;;;;;;;7.30;3.85;;;21.80;34.50;;;;;;4995427;28;114681;-79
2023/05/31 08:20:40;;;;;;;6.88;3.70;;;21.70;33.70;;;;;;5000280;28;114240;-76
2023/05/31 08:23:07;;;;;;;7.75;3.80;;;21.60;34.00;;;;;;4981006;28;114410;-77
2023/05/31 08:25:34;;;;;;;6.35;3.97;;;21.70;33.20;;;;;;5002452;28;114217;-78
2023/05/31 08:28:01;;;;;;;6.78;3.47;;;21.60;32.00;;;;;;5001407;28;115045;-79
2023/05/31 08:30:29;;;;;;;13.30;4.03;;;21.60;32.10;;;;;;5000549;28;115232;-79
2023/05/31 08:32:57;;;;;;;8.43;3.17;;;21.60;32.00;;;;;;4984683;28;114397;-79
2023/05/31 08:35:25;;;;;;;8.93;3.38;;;21.50;31.60;;;;;;5000888;28;114393;-78
2023/05/31 08:37:54;;;;;;;7.35;3.20;;;21.50;31.60;;;;;;5000298;28;114956;-79
2023/05/31 08:40:23;;;;;;;10.20;3.17;;;21.50;32.20;;;;;;5001488;28;114836;-79
2023/05/31 08:42:58;;;;;;;7.22;3.10;;;21.70;32.10;;;;;;5003705;28;114122;-80
2023/05/31 08:45:29;;;;;;;5.78;2.95;;;21.80;31.40;;;;;;5004179;28;114530;-79
2023/05/31 08:47:59;;;;;;;6.68;2.85;;;21.90;32.20;;;;;;5005640;28;115947;-79
2023/05/31 08:50:26;;;;;;;8.82;3.35;;;22.00;31.40;;;;;;4998808;28;114684;-80
2023/05/31 08:52:56;;;;;;;6.90;2.85;;;21.90;31.80;;;;;;4964809;28;114584;-80
2023/05/31 08:55:23;;;;;;;6.40;2.60;;;21.80;31.20;;;;;;4966921;28;114571;-78
2023/05/31 08:57:51;;;;;;;5.63;2.47;;;21.60;30.00;;;;;;4999752;28;114877;-79
2023/05/31 09:00:19;;;;;;;7.82;2.75;;;21.50;29.90;;;;;;4963274;28;115067;-79
2023/05/31 09:02:47;;;;;;;7.55;3.20;;;21.40;31.10;;;;;;4989709;28;115059;-79
2023/05/31 09:05:14;;;;;;;6.53;2.42;;;21.30;30.10;;;;;;5004019;28;114600;-78
2023/05/31 09:07:41;;;;;;;9.43;3.03;;;21.30;30.80;;;;;;5002755;28;115648;-79
2023/05/31 09:10:09;;;;;;;6.85;2.25;;;21.40;31.50;;;;;;4987117;28;117901;-79
2023/05/31 09:12:36;;;;;;;8.68;2.80;;;21.50;31.40;;;;;;5004213;28;114467;-79
2023/05/31 09:15:05;;;;;;;9.57;3.22;;;21.60;30.80;;;;;;4971770;28;114466;-79
2023/05/31 09:17:32;;;;;;;6.85;2.72;;;21.60;31.00;;;;;;4987538;28;114947;-79
2023/05/31 09:20:00;;;;;;;5.97;3.03;;;21.60;30.60;;;;;;5003252;28;115310;-78
2023/05/31 09:22:27;;;;;;;8.43;2.80;;;21.60;30.70;;;;;;4986220;28;114660;-78
2023/05/31 09:24:58;;;;;;;13.18;3.05;;;21.50;30.40;;;;;;5005296;28;114247;-79
2023/05/31 09:27:27;;;;;;;6.22;2.47;;;21.40;30.30;;;;;;5003930;28;115467;-78
2023/05/31 09:29:54;;;;;;;6.75;2.80;;;21.30;30.70;;;;;;5002946;28;114815;-79
2023/05/31 09:32:21;;;;;;;7.32;2.60;;;21.30;31.10;;;;;;5004135;28;117780;-79
2023/05/31 09:34:49;;;;;;;6.55;2.72;;;21.20;31.30;;;;;;5004538;28;114495;-79
2023/05/31 09:37:25;;;;;;;8.50;2.65;;;21.30;30.90;;;;;;5002740;28;116038;-79
2023/05/31 09:39:57;;;;;;;9.02;2.90;;;21.40;30.60;;;;;;5004373;28;114545;-79
2023/05/31 09:42:26;;;;;;;7.63;2.65;;;21.40;30.80;;;;;;4987648;28;114477;-79
2023/05/31 09:44:54;;;;;;;5.10;2.85;;;21.50;30.70;;;;;;4971617;28;116573;-79
2023/05/31 09:47:25;;;;;;;6.50;2.85;;;21.40;30.50;;;;;;4969260;28;118503;-79
2023/05/31 09:49:54;;;;;;;5.60;2.70;;;21.50;31.20;;;;;;5001734;28;115388;-79
2023/05/31 09:52:27;;;;;;;5.72;2.45;;;21.40;31.10;;;;;;5003525;28;114355;-78
2023/05/31 09:54:56;;;;;;;6.10;2.53;;;21.50;31.20;;;;;;5002398;28;114581;-79
2023/05/31 09:57:40;;;;;;;7.65;2.85;;;21.50;30.80;;;;;;4974571;28;115868;-79
2023/05/31 10:00:20;;;;;;;5.30;2.83;;;21.50;31.40;;;;;;4983389;28;114658;-79
2023/05/31 10:02:48;;;;;;;8.32;2.47;;;21.40;31.10;;;;;;5000428;28;114518;-79
2023/05/31 10:05:16;;;;;;;9.35;2.85;;;21.30;31.00;;;;;;4986871;28;114379;-79
2023/05/31 10:07:45;;;;;;;6.68;2.67;;;21.40;30.70;;;;;;4985464;28;116235;-78
2023/05/31 10:10:12;;;;;;;5.90;2.60;;;21.30;31.10;;;;;;5002323;28;114669;-79
2023/05/31 10:12:45;;;;;;;6.45;2.65;;;21.40;31.00;;;;;;4962467;28;114287;-79
2023/05/31 10:15:15;;;;;;;8.50;2.33;;;21.30;30.90;;;;;;5000744;28;114323;-79
2023/05/31 10:17:48;;;;;;;6.50;2.72;;;21.30;30.50;;;;;;5008308;28;115415;-78
2023/05/31 10:20:17;;;;;;;7.25;2.42;;;21.30;30.20;;;;;;4992255;28;114772;-78
2023/05/31 10:22:45;;;;;;;5.43;2.40;;;21.30;30.50;;;;;;5003925;28;114428;-79
2023/05/31 10:25:27;;;;;;;6.32;2.30;;;21.30;30.60;;;;;;4987138;28;114404;-79
2023/05/31 10:28:00;;;;;;;5.45;2.35;;;21.50;30.60;;;;;;4983503;28;114937;-78
2023/05/31 10:30:29;;;;;;;7.78;2.50;;;21.50;30.30;;;;;;4998844;28;114632;-79
2023/05/31 10:33:07;;;;;;;5.95;2.30;;;21.50;30.30;;;;;;4982416;28;114333;-79
2023/05/31 10:35:34;;;;;;;4.47;2.08;;;21.40;31.00;;;;;;5004362;28;118948;-79
2023/05/31 10:38:02;;;;;;;8.52;3.25;;;21.30;30.90;;;;;;5002756;28;114976;-79
2023/05/31 10:40:49;;;;;;;4.18;2.28;;;21.30;30.90;;;;;;4985416;28;114716;-79
2023/05/31 10:43:22;;;;;;;5.65;2.67;;;21.30;31.60;;;;;;5003296;28;114458;-79
2023/05/31 10:46:05;;;;;;;6.77;2.50;;;21.30;31.80;;;;;;4983131;28;115340;-79
2023/05/31 10:48:41;;;;;;;7.72;2.70;;;21.30;31.40;;;;;;4997732;28;115493;-79
2023/05/31 10:51:10;;;;;;;5.03;2.17;;;21.30;31.60;;;;;;4981007;28;116663;-79
2023/05/31 10:53:38;;;;;;;7.40;2.63;;;21.30;31.60;;;;;;4998343;28;117698;-79
2023/05/31 10:56:10;;;;;;;8.88;2.60;;;21.50;31.40;;;;;;4999081;28;114366;-79
2023/05/31 10:58:42;;;;;;;7.32;2.42;;;21.70;31.20;;;;;;4997731;28;114808;-79
2023/05/31 11:01:13;;;;;;;4.95;2.63;;;21.80;31.50;;;;;;4982773;28;115126;-79
2023/05/31 11:03:51;;;;;;;7.45;2.63;;;21.90;31.10;;;;;;4997248;28;114680;-79
2023/05/31 11:06:30;;;;;;;6.22;2.55;;;21.90;31.10;;;;;;4982348;28;114480;-79
2023/05/31 11:08:58;;;;;;;5.97;2.53;;;21.90;30.80;;;;;;4981873;28;115349;-79
2023/05/31 11:11:31;;;;;;;5.95;2.50;;;21.80;31.00;;;;;;4982439;28;115261;-78
2023/05/31 11:13:59;;;;;;;8.00;2.55;;;21.70;31.30;;;;;;4982916;28;114576;-79
2023/05/31 11:16:27;;;;;;;6.65;2.50;;;21.60;31.20;;;;;;4982888;28;115289;-79
2023/05/31 11:19:04;;;;;;;6.43;2.50;;;21.50;31.20;;;;;;4997377;28;115111;-79
2023/05/31 11:21:51;;;;;;;6.88;2.63;;;21.50;31.40;;;;;;4982414;28;114572;-79
2023/05/31 11:24:33;;;;;;;5.00;2.40;;;21.60;31.50;;;;;;4982947;28;114359;-79
2023/05/31 11:27:02;;;;;;;4.03;2.35;;;21.50;31.60;;;;;;4982902;28;114613;-79
2023/05/31 11:29:47;;;;;;;5.18;2.20;;;21.50;31.80;;;;;;4980324;28;114914;-78
2023/05/31 11:32:33;;;;;;;4.55;2.10;;;21.50;31.80;;;;;;4982102;28;116651;-80
2023/05/31 11:35:06;;;;;;;7.22;2.90;;;21.50;31.90;;;;;;4981620;28;114313;-80
2023/05/31 11:37:36;;;;;;;5.87;2.30;;;21.50;32.00;;;;;;4997921;28;114307;-80
2023/05/31 11:40:06;;;;;;;5.78;2.20;;;21.60;31.50;;;;;;4982022;28;115671;-80
2023/05/31 11:42:35;;;;;;;5.35;2.20;;;21.70;31.80;;;;;;5013764;28;114598;-78
2023/05/31 11:45:12;;;;;;;5.13;2.33;;;21.70;31.50;;;;;;5018092;28;114568;-78
2023/05/31 11:47:44;;;;;;;4.82;2.40;;;21.70;31.10;;;;;;5001779;28;114532;-78
2023/05/31 11:50:13;;;;;;;8.20;2.28;;;21.70;31.40;;;;;;5000603;28;114912;-79
2023/05/31 11:52:40;;;;;;;6.28;2.40;;;21.70;31.60;;;;;;4975194;28;115929;-78
2023/05/31 11:55:09;;;;;;;6.63;2.42;;;21.70;31.80;;;;;;4982105;28;114316;-80
2023/05/31 11:57:41;;;;;;;8.30;2.58;;;21.80;31.60;;;;;;4983184;28;114318;-78
2023/05/31 12:00:11;;;;;;;6.18;2.55;;;21.90;31.50;;;;;;4997262;28;115039;-78
2023/05/31 12:02:40;;;;;;;6.18;2.10;;;21.90;31.20;;;;;;4982170;28;117026;-78
2023/05/31 12:05:16;;;;;;;7.53;2.60;;;21.90;31.90;;;;;;4998598;28;114410;-78
2023/05/31 12:07:48;;;;;;;8.95;2.58;;;21.90;31.60;;;;;;5000220;28;114483;-77
2023/05/31 12:10:17;;;;;;;7.78;2.55;;;21.80;31.00;;;;;;4982374;28;114435;-79
2023/05/31 12:12:46;;;;;;;5.55;2.40;;;21.90;31.10;;;;;;4982045;28;114645;-79
2023/05/31 12:15:14;;;;;;;5.53;2.20;;;22.00;31.30;;;;;;4989611;28;114384;-80
2023/05/31 12:17:41;;;;;;;6.90;2.60;;;21.90;31.40;;;;;;4991101;28;114190;-80
2023/05/31 12:20:09;;;;;;;5.88;2.47;;;21.90;31.30;;;;;;4966748;28;118701;-80
2023/05/31 12:22:36;;;;;;;5.53;2.30;;;21.90;31.70;;;;;;4983956;28;114619;-79
2023/05/31 12:25:07;;;;;;;4.28;2.35;;;21.90;31.70;;;;;;5001142;28;114554;-80
2023/05/31 12:27:35;;;;;;;5.03;2.50;;;22.00;31.80;;;;;;5000612;28;114371;-79
2023/05/31 12:30:18;;;;;;;5.85;2.70;;;22.00;31.50;;;;;;4984039;28;115427;-79
2023/05/31 12:32:46;;;;;;;6.50;2.80;;;22.00;31.40;;;;;;4985526;28;114797;-79
2023/05/31 12:35:13;;;;;;;8.90;2.72;;;21.90;30.90;;;;;;4984205;28;114577;-80
2023/05/31 12:37:42;;;;;;;4.38;2.30;;;21.80;31.40;;;;;;5001218;28;114616;-79
2023/05/31 12:40:13;;;;;;;7.22;2.83;;;21.80;31.20;;;;;;4984650;28;115431;-79
2023/05/31 12:42:40;;;;;;;7.70;2.65;;;21.70;31.30;;;;;;4999922;28;115432;-79
2023/05/31 12:45:08;;;;;;;7.00;2.55;;;21.60;31.50;;;;;;4983848;28;114470;-79
2023/05/31 12:47:36;;;;;;;8.15;2.47;;;21.70;31.60;;;;;;5000871;28;114391;-81
2023/05/31 12:50:06;;;;;;;6.00;2.30;;;21.60;31.60;;;;;;5003137;28;115013;-79